Time;durP1;ratioP1;P1;durP2;ratioP2;P2;SDS_P1;SDS_P2;PMS_P1;PMS_P2;Temp;Humidity;BMP_temperature;BMP_pressure;BME280_temperature;BME280_humidity;BME280_pressure;Samples;Min_cycle;Max_cycle;Signal;HPM_P1;HPM_P2
2023/06/26 00:00:40;;;;;;;22.90;21.15;;;15.60;70.00;;;;;;5055116;28;20448;-73
2023/06/26 00:03:06;;;;;;;20.73;19.25;;;15.60;69.20;;;;;;5073318;28;20032;-73
2023/06/26 00:05:32;;;;;;;20.15;18.75;;;15.60;69.90;;;;;;5075519;28;20024;-73
2023/06/26 00:08:00;;;;;;;20.75;19.00;;;15.60;69.50;;;;;;5073669;28;20036;-73
2023/06/26 00:10:27;;;;;;;19.75;18.08;;;15.60;69.00;;;;;;5070800;28;20044;-73
2023/06/26 00:12:53;;;;;;;19.92;18.30;;;15.60;70.30;;;;;;5070330;28;20028;-74
2023/06/26 00:15:19;;;;;;;18.25;16.88;;;15.50;69.90;;;;;;5052753;28;20040;-74
2023/06/26 00:17:45;;;;;;;19.17;17.77;;;15.30;69.60;;;;;;5078420;28;20511;-74
2023/06/26 00:20:11;;;;;;;19.23;17.83;;;15.40;68.00;;;;;;5053823;28;20066;-74
2023/06/26 00:22:40;;;;;;;18.77;17.20;;;15.40;69.80;;;;;;5055212;28;20414;-73
2023/06/26 00:25:07;;;;;;;18.30;16.48;;;15.40;70.10;;;;;;5073325;28;20041;-73
2023/06/26 00:27:32;;;;;;;18.75;17.42;;;15.30;70.50;;;;;;5074672;28;20040;-74
2023/06/26 00:29:58;;;;;;;18.33;16.75;;;15.40;69.60;;;;;;5091926;28;20032;-74
2023/06/26 00:32:24;;;;;;;18.55;17.15;;;15.30;69.40;;;;;;5079114;28;20035;-74
2023/06/26 00:34:49;;;;;;;17.90;16.60;;;15.30;69.20;;;;;;5078662;28;20549;-74
2023/06/26 00:37:15;;;;;;;19.50;18.10;;;15.30;69.20;;;;;;5076858;28;20036;-74
2023/06/26 00:39:41;;;;;;;18.83;17.33;;;15.30;68.80;;;;;;5075074;28;20028;-74
2023/06/26 00:42:07;;;;;;;19.50;17.98;;;15.20;69.30;;;;;;5079682;28;20028;-74
2023/06/26 00:44:32;;;;;;;20.00;18.30;;;15.20;68.70;;;;;;5076868;28;20024;-74
2023/06/26 00:46:59;;;;;;;19.42;18.02;;;15.20;68.20;;;;;;5074425;28;20029;-74
2023/06/26 00:49:26;;;;;;;18.95;17.33;;;15.20;69.60;;;;;;5054897;28;20032;-74
2023/06/26 00:51:52;;;;;;;18.83;17.42;;;15.30;70.00;;;;;;5057620;28;20040;-73
2023/06/26 00:54:20;;;;;;;18.67;17.17;;;15.20;69.90;;;;;;5071159;28;20036;-74
2023/06/26 00:56:47;;;;;;;18.23;16.92;;;15.10;70.10;;;;;;5077638;28;20109;-74
2023/06/26 00:59:13;;;;;;;20.95;19.30;;;15.10;70.80;;;;;;5073737;28;20505;-74
2023/06/26 01:01:39;;;;;;;19.45;17.90;;;15.10;71.90;;;;;;5079836;28;20048;-74
2023/06/26 01:04:05;;;;;;;18.50;16.77;;;15.00;71.60;;;;;;5076329;28;20074;-73
2023/06/26 01:06:35;;;;;;;17.38;15.80;;;14.90;70.70;;;;;;5072782;28;20415;-73
2023/06/26 01:09:01;;;;;;;17.55;16.05;;;14.90;70.50;;;;;;5086907;28;20488;-74
2023/06/26 01:11:27;;;;;;;18.02;16.63;;;14.90;70.90;;;;;;5088730;28;20037;-74
2023/06/26 01:13:56;;;;;;;18.92;17.48;;;14.80;70.90;;;;;;5059914;28;20032;-74
2023/06/26 01:16:24;;;;;;;18.92;17.60;;;14.70;71.60;;;;;;5074285;28;20150;-73
2023/06/26 01:18:50;;;;;;;19.63;18.15;;;14.70;72.00;;;;;;5073926;28;20017;-74
2023/06/26 01:21:17;;;;;;;20.85;19.17;;;14.70;72.80;;;;;;5074104;28;20556;-73
2023/06/26 01:23:51;;;;;;;20.52;18.98;;;14.60;73.40;;;;;;5074675;28;20051;-73
2023/06/26 01:26:20;;;;;;;19.30;17.90;;;14.60;74.10;;;;;;5069846;28;20110;-74
2023/06/26 01:28:46;;;;;;;19.15;17.58;;;14.50;74.70;;;;;;5078542;28;20025;-73
2023/06/26 01:31:13;;;;;;;18.70;17.25;;;14.60;74.50;;;;;;5074859;28;20103;-73
2023/06/26 01:33:40;;;;;;;18.52;17.02;;;14.60;74.30;;;;;;5074872;28;20062;-74
2023/06/26 01:36:07;;;;;;;18.38;16.95;;;14.60;73.90;;;;;;5090151;28;20036;-74
2023/06/26 01:38:34;;;;;;;18.80;17.27;;;14.50;73.70;;;;;;5074047;28;20071;-74
2023/06/26 01:41:00;;;;;;;18.25;16.77;;;14.50;74.00;;;;;;5072621;28;20502;-74
2023/06/26 01:44:00;;;;;;;17.55;15.82;;;14.30;75.20;;;;;;5075256;28;20037;-73
2023/06/26 01:46:34;;;;;;;16.05;14.55;;;14.40;75.70;;;;;;5067477;28;20024;-74
2023/06/26 01:49:08;;;;;;;16.50;14.98;;;14.20;75.90;;;;;;5073540;28;20032;-74
2023/06/26 01:51:41;;;;;;;17.60;16.10;;;14.10;76.50;;;;;;5071015;28;20028;-74
2023/06/26 01:54:13;;;;;;;18.80;17.13;;;14.10;77.30;;;;;;5052571;28;20667;-74
2023/06/26 01:56:39;;;;;;;17.55;16.13;;;14.10;77.70;;;;;;5071881;28;20040;-74
2023/06/26 01:59:07;;;;;;;17.35;15.95;;;14.00;78.00;;;;;;5070891;28;20025;-73
2023/06/26 02:01:33;;;;;;;17.77;16.27;;;14.00;79.10;;;;;;5079123;28;20501;-73
2023/06/26 02:03:59;;;;;;;17.88;16.08;;;14.10;78.00;;;;;;5071631;28;20395;-74
2023/06/26 02:06:25;;;;;;;17.67;16.17;;;14.10;77.50;;;;;;5076088;28;20032;-74
2023/06/26 02:08:51;;;;;;;18.20;16.50;;;14.00;77.50;;;;;;5073186;28;20031;-73
2023/06/26 02:11:17;;;;;;;18.00;16.60;;;14.00;77.40;;;;;;5065012;28;20398;-74
2023/06/26 02:13:42;;;;;;;19.00;17.20;;;13.90;77.80;;;;;;5071000;28;20024;-74
2023/06/26 02:16:08;;;;;;;18.45;16.67;;;14.00;77.80;;;;;;5072422;28;20044;-74
2023/06/26 02:18:34;;;;;;;20.88;18.08;;;13.90;78.30;;;;;;5071850;28;20083;-73
2023/06/26 02:21:00;;;;;;;19.38;17.67;;;13.90;78.90;;;;;;5072871;28;20021;-74
2023/06/26 02:23:25;;;;;;;20.20;18.23;;;14.00;78.90;;;;;;5083431;28;20795;-74
2023/06/26 02:25:51;;;;;;;21.00;18.90;;;14.00;79.70;;;;;;5071759;28;20059;-74
2023/06/26 02:28:16;;;;;;;19.27;17.73;;;14.10;79.60;;;;;;5077526;28;20051;-74
2023/06/26 02:30:42;;;;;;;21.08;18.95;;;14.10;79.30;;;;;;5068868;28;20043;-74
2023/06/26 02:33:08;;;;;;;22.23;20.05;;;14.00;80.90;;;;;;5076305;28;20044;-73
2023/06/26 02:35:34;;;;;;;21.58;19.60;;;14.00;81.90;;;;;;5086844;28;20486;-74
2023/06/26 02:37:59;;;;;;;21.55;19.73;;;13.90;82.20;;;;;;5088449;28;20444;-73
2023/06/26 02:40:25;;;;;;;21.23;19.35;;;13.90;83.40;;;;;;5070045;28;20032;-73
2023/06/26 02:42:50;;;;;;;21.75;19.85;;;13.90;84.30;;;;;;5070881;28;20111;-74
2023/06/26 02:45:16;;;;;;;21.35;19.35;;;13.90;83.80;;;;;;5070363;28;20036;-74
2023/06/26 02:47:42;;;;;;;24.63;22.33;;;13.90;84.20;;;;;;5071740;28;20489;-74
2023/06/26 02:50:08;;;;;;;23.15;21.20;;;13.90;85.20;;;;;;5070373;28;20613;-74
2023/06/26 02:52:33;;;;;;;23.05;21.05;;;13.90;85.40;;;;;;5070048;28;20398;-74
2023/06/26 02:54:59;;;;;;;23.42;21.25;;;13.80;85.40;;;;;;5072037;28;20101;-73
2023/06/26 02:57:25;;;;;;;23.38;21.15;;;13.80;85.50;;;;;;5073633;28;20136;-73
2023/06/26 02:59:50;;;;;;;24.27;22.02;;;13.90;85.50;;;;;;5071534;28;20119;-73
2023/06/26 03:02:16;;;;;;;22.90;20.85;;;13.90;85.40;;;;;;5070918;28;20493;-73
2023/06/26 03:04:42;;;;;;;22.92;20.88;;;13.90;85.30;;;;;;5070134;28;20535;-73
2023/06/26 03:07:09;;;;;;;22.85;20.73;;;13.90;85.20;;;;;;5074060;28;20571;-73
2023/06/26 03:09:34;;;;;;;23.15;20.85;;;13.80;85.60;;;;;;5071228;28;20033;-73
2023/06/26 03:12:00;;;;;;;22.05;20.05;;;13.80;85.60;;;;;;5068869;28;20580;-73
2023/06/26 03:14:26;;;;;;;22.75;20.48;;;13.80;85.80;;;;;;5069931;28;20040;-73
2023/06/26 03:16:52;;;;;;;21.65;19.58;;;13.70;86.10;;;;;;5074426;28;20089;-73
2023/06/26 03:19:18;;;;;;;22.60;20.40;;;13.70;86.30;;;;;;5089125;28;20456;-73
2023/06/26 03:21:44;;;;;;;23.02;20.67;;;13.70;86.20;;;;;;5085020;28;20028;-73
2023/06/26 03:24:10;;;;;;;22.60;20.50;;;13.70;86.30;;;;;;5072247;28;20113;-74
2023/06/26 03:26:35;;;;;;;22.45;20.35;;;13.80;86.10;;;;;;5071649;28;20032;-73
2023/06/26 03:29:01;;;;;;;25.80;20.00;;;13.80;86.30;;;;;;5072362;28;20654;-73
2023/06/26 03:31:26;;;;;;;22.50;20.20;;;13.70;86.10;;;;;;5072708;28;20032;-74
2023/06/26 03:33:52;;;;;;;21.40;19.38;;;13.80;85.80;;;;;;5073758;28;20043;-73
2023/06/26 03:36:18;;;;;;;23.15;20.77;;;13.80;85.50;;;;;;5071873;28;20205;-73
2023/06/26 03:38:43;;;;;;;23.88;20.90;;;13.90;85.00;;;;;;5073865;28;20063;-73
2023/06/26 03:41:09;;;;;;;21.63;19.70;;;13.90;84.60;;;;;;5070168;28;20036;-73
2023/06/26 03:43:35;;;;;;;22.00;19.75;;;13.90;84.70;;;;;;5074623;28;20063;-73
2023/06/26 03:46:00;;;;;;;22.23;20.10;;;14.00;84.90;;;;;;5073703;28;20528;-73
2023/06/26 03:48:26;;;;;;;21.35;19.42;;;14.00;84.00;;;;;;5074204;28;20046;-73
2023/06/26 03:50:52;;;;;;;22.83;20.55;;;14.00;83.90;;;;;;5077701;28;20425;-73
2023/06/26 03:53:17;;;;;;;22.23;20.20;;;14.20;83.50;;;;;;5072833;28;20551;-73
2023/06/26 03:55:43;;;;;;;22.90;20.13;;;14.30;83.10;;;;;;5069472;28;20032;-73
2023/06/26 03:58:09;;;;;;;22.25;20.25;;;14.40;82.10;;;;;;5074799;28;20040;-73
2023/06/26 04:00:34;;;;;;;21.23;19.08;;;14.40;82.50;;;;;;5073788;28;20099;-73
2023/06/26 04:03:00;;;;;;;21.42;19.45;;;14.40;82.20;;;;;;5082076;28;20502;-74
2023/06/26 04:05:26;;;;;;;23.05;20.75;;;14.50;81.60;;;;;;5078863;28;20025;-73
2023/06/26 04:07:52;;;;;;;21.13;19.23;;;14.60;81.50;;;;;;5060141;28;20035;-74
2023/06/26 04:10:20;;;;;;;23.20;20.77;;;14.60;80.60;;;;;;5077275;28;20047;-74
2023/06/26 04:12:46;;;;;;;22.45;20.23;;;14.70;80.00;;;;;;5073469;28;20032;-75
2023/06/26 04:15:11;;;;;;;25.42;19.90;;;14.80;79.70;;;;;;5071996;28;20035;-73
2023/06/26 04:17:37;;;;;;;25.60;20.92;;;14.90;79.80;;;;;;5075732;28;20138;-75
2023/06/26 04:20:06;;;;;;;31.33;21.60;;;14.90;79.20;;;;;;5072442;28;20051;-74
2023/06/26 04:22:32;;;;;;;29.83;22.02;;;14.90;79.10;;;;;;5081650;28;20055;-75
2023/06/26 04:24:58;;;;;;;26.10;21.70;;;15.10;78.20;;;;;;5070166;28;20146;-75
2023/06/26 04:27:23;;;;;;;26.52;20.98;;;15.20;78.20;;;;;;5073372;28;20486;-74
2023/06/26 04:29:49;;;;;;;24.30;21.48;;;15.20;78.00;;;;;;5076778;28;20085;-73
2023/06/26 04:32:15;;;;;;;23.38;21.20;;;15.30;78.40;;;;;;5075402;28;20462;-75
2023/06/26 04:34:43;;;;;;;24.40;21.98;;;15.30;77.70;;;;;;5076643;28;20034;-75
2023/06/26 04:37:09;;;;;;;23.83;21.55;;;15.40;77.50;;;;;;5077042;28;20051;-75
2023/06/26 04:39:36;;;;;;;23.33;20.67;;;15.50;76.20;;;;;;5074436;28;20443;-75
2023/06/26 04:42:03;;;;;;;22.55;20.23;;;15.50;76.60;;;;;;5079929;28;20026;-73
2023/06/26 04:44:28;;;;;;;22.58;20.27;;;15.60;76.30;;;;;;5056565;28;20028;-78
2023/06/26 04:46:54;;;;;;;22.63;20.52;;;15.70;75.90;;;;;;5090213;28;20035;-77
2023/06/26 04:49:20;;;;;;;22.02;20.10;;;15.80;75.70;;;;;;5077305;28;20433;-81
2023/06/26 04:51:45;;;;;;;28.70;21.83;;;15.90;76.00;;;;;;5072175;28;20491;-79
2023/06/26 04:54:11;;;;;;;21.95;19.85;;;16.00;75.90;;;;;;5085386;28;20041;-75
2023/06/26 04:56:39;;;;;;;22.13;20.00;;;16.10;75.50;;;;;;5057717;28;20410;-75
2023/06/26 04:59:05;;;;;;;21.80;20.00;;;16.10;75.30;;;;;;5073836;28;20052;-76
2023/06/26 05:01:32;;;;;;;34.17;20.45;;;16.20;74.60;;;;;;5075400;28;20052;-81
2023/06/26 05:04:00;;;;;;;21.45;19.23;;;16.30;75.40;;;;;;5077046;28;20051;-78
2023/06/26 05:06:26;;;;;;;21.08;19.08;;;16.40;74.40;;;;;;5087807;28;20039;-80
2023/06/26 05:08:51;;;;;;;21.90;19.73;;;16.50;74.50;;;;;;5074955;28;20028;-78
2023/06/26 05:11:17;;;;;;;21.95;19.85;;;16.60;75.00;;;;;;5087129;28;20040;-77
2023/06/26 05:13:43;;;;;;;21.92;20.02;;;16.70;74.20;;;;;;5074446;28;20108;-77
2023/06/26 05:16:09;;;;;;;22.00;19.95;;;16.80;74.20;;;;;;5073803;28;20034;-75
2023/06/26 05:18:36;;;;;;;19.92;18.25;;;16.90;74.00;;;;;;5052915;28;20032;-76
2023/06/26 05:21:02;;;;;;;20.63;18.70;;;17.00;73.90;;;;;;5069060;28;20403;-79
2023/06/26 05:23:31;;;;;;;20.83;18.65;;;17.10;73.40;;;;;;5056474;28;20049;-76
2023/06/26 05:25:57;;;;;;;21.60;19.35;;;17.20;73.40;;;;;;5072363;28;20035;-79
2023/06/26 05:28:24;;;;;;;20.73;18.88;;;17.40;73.70;;;;;;5093258;28;20040;-78
2023/06/26 05:30:51;;;;;;;20.77;18.73;;;17.50;72.70;;;;;;5074802;28;20363;-79
2023/06/26 05:33:19;;;;;;;20.38;18.50;;;17.60;72.40;;;;;;5073015;28;20068;-79
2023/06/26 05:35:45;;;;;;;20.70;18.58;;;17.70;73.20;;;;;;5073453;28;20509;-81
2023/06/26 05:38:13;;;;;;;20.00;17.95;;;17.90;72.80;;;;;;5073204;28;20040;-78
2023/06/26 05:40:42;;;;;;;20.35;18.63;;;18.00;71.40;;;;;;5073253;28;20020;-78
2023/06/26 05:43:08;;;;;;;21.20;19.40;;;18.10;71.40;;;;;;5073977;28;20028;-75
2023/06/26 05:45:34;;;;;;;20.80;18.70;;;18.30;70.60;;;;;;5075889;28;20031;-78
2023/06/26 05:48:00;;;;;;;19.23;17.42;;;18.40;70.70;;;;;;5091437;28;20032;-78
2023/06/26 05:50:26;;;;;;;18.85;17.13;;;18.50;70.20;;;;;;5074756;28;20059;-78
2023/06/26 05:52:53;;;;;;;19.98;18.17;;;18.70;69.80;;;;;;5073223;28;20031;-77
2023/06/26 05:55:19;;;;;;;18.90;17.27;;;18.80;70.30;;;;;;5073306;28;20578;-77
2023/06/26 05:57:46;;;;;;;19.33;17.40;;;18.90;70.30;;;;;;5071363;28;20035;-77
2023/06/26 06:00:12;;;;;;;20.77;18.77;;;19.10;68.80;;;;;;5070664;28;20017;-77
2023/06/26 06:02:39;;;;;;;20.63;18.85;;;19.20;68.60;;;;;;5085473;28;20037;-77
2023/06/26 06:05:06;;;;;;;21.90;20.08;;;19.30;67.30;;;;;;5075110;28;20036;-76
2023/06/26 06:07:35;;;;;;;30.42;20.65;;;19.40;67.10;;;;;;5072267;28;20040;-77
2023/06/26 06:10:04;;;;;;;22.00;19.95;;;19.50;66.80;;;;;;5074212;28;20828;-75
2023/06/26 06:12:30;;;;;;;19.77;17.97;;;19.60;67.80;;;;;;5078750;28;20032;-74
2023/06/26 06:14:57;;;;;;;26.63;19.55;;;19.70;65.40;;;;;;5073948;28;20032;-74
2023/06/26 06:17:23;;;;;;;20.90;18.88;;;19.80;65.90;;;;;;5075088;28;20039;-74
2023/06/26 06:19:49;;;;;;;22.75;18.38;;;20.00;65.80;;;;;;5074035;28;20107;-74
2023/06/26 06:22:16;;;;;;;24.00;20.30;;;20.10;63.80;;;;;;5054323;28;20040;-74
2023/06/26 06:24:42;;;;;;;21.27;18.17;;;20.20;65.60;;;;;;5070035;28;20440;-74
2023/06/26 06:27:07;;;;;;;21.30;19.25;;;20.40;63.50;;;;;;5074740;28;20093;-74
2023/06/26 06:29:33;;;;;;;25.27;20.95;;;20.40;62.00;;;;;;5073443;28;20031;-77
2023/06/26 06:31:59;;;;;;;21.65;19.35;;;20.60;63.00;;;;;;5089166;28;20036;-77
2023/06/26 06:34:24;;;;;;;21.75;19.77;;;20.70;64.90;;;;;;5055816;28;20055;-77
2023/06/26 06:36:50;;;;;;;21.02;19.17;;;20.80;61.80;;;;;;5076348;28;20547;-77
2023/06/26 06:39:16;;;;;;;27.98;25.17;;;21.00;62.10;;;;;;5091102;28;20024;-77
2023/06/26 06:41:42;;;;;;;33.30;30.45;;;20.90;60.50;;;;;;5073240;28;20027;-76
2023/06/26 06:44:07;;;;;;;31.75;29.25;;;20.90;60.40;;;;;;5051527;28;20028;-77
2023/06/26 06:46:33;;;;;;;22.95;20.67;;;20.90;61.20;;;;;;5074186;28;20028;-77
2023/06/26 06:49:00;;;;;;;27.17;24.80;;;21.10;63.20;;;;;;5074588;28;20060;-77
2023/06/26 06:51:25;;;;;;;24.23;21.98;;;21.20;62.40;;;;;;5076703;28;20025;-77
2023/06/26 06:53:51;;;;;;;23.05;21.17;;;21.40;62.90;;;;;;5071712;28;20029;-77
2023/06/26 06:56:17;;;;;;;29.75;26.80;;;21.60;61.50;;;;;;5092633;28;20063;-77
2023/06/26 06:58:43;;;;;;;28.77;26.58;;;21.70;61.30;;;;;;5077105;28;20394;-77
2023/06/26 07:01:12;;;;;;;27.10;24.75;;;21.70;60.20;;;;;;5070651;28;20038;-77
2023/06/26 07:03:37;;;;;;;33.42;31.05;;;21.90;60.80;;;;;;5076029;28;20028;-77
2023/06/26 07:06:04;;;;;;;35.08;32.72;;;22.00;59.20;;;;;;5072613;28;20042;-78
2023/06/26 07:08:30;;;;;;;29.55;27.52;;;22.10;58.30;;;;;;5073930;28;20043;-77
2023/06/26 07:10:59;;;;;;;30.77;28.80;;;22.20;58.90;;;;;;5092474;28;20437;-77
2023/06/26 07:13:25;;;;;;;27.95;26.20;;;22.30;57.90;;;;;;5069974;28;20063;-77
2023/06/26 07:15:53;;;;;;;29.80;27.90;;;22.50;59.40;;;;;;5076625;28;20036;-77
2023/06/26 07:18:18;;;;;;;29.15;27.25;;;22.60;57.90;;;;;;5087000;28;20670;-77
2023/06/26 07:20:44;;;;;;;29.67;27.98;;;22.80;57.20;;;;;;5073095;28;20103;-77
2023/06/26 07:23:10;;;;;;;28.38;26.65;;;22.90;56.60;;;;;;5074499;28;20132;-77
2023/06/26 07:25:36;;;;;;;32.30;30.50;;;23.00;57.60;;;;;;5072886;28;20063;-77
2023/06/26 07:28:02;;;;;;;38.92;36.58;;;23.10;55.90;;;;;;5068966;28;20033;-76
2023/06/26 07:30:27;;;;;;;32.33;30.25;;;23.30;55.10;;;;;;5059094;28;20040;-76
2023/06/26 07:32:53;;;;;;;37.55;35.17;;;23.40;55.80;;;;;;5053765;28;20043;-77
2023/06/26 07:35:19;;;;;;;32.03;29.67;;;23.60;54.70;;;;;;5077663;28;20048;-77
2023/06/26 07:37:45;;;;;;;27.45;25.45;;;23.70;51.50;;;;;;5079303;28;20029;-77
2023/06/26 07:40:11;;;;;;;25.88;24.13;;;23.80;53.10;;;;;;5075288;28;20035;-77
2023/06/26 07:42:36;;;;;;;29.60;27.70;;;23.90;52.50;;;;;;5077908;28;20025;-77
2023/06/26 07:45:09;;;;;;;29.27;27.35;;;24.00;53.00;;;;;;5074853;28;20507;-77
2023/06/26 07:47:35;;;;;;;77.82;74.47;;;24.30;52.30;;;;;;5080509;28;20023;-77
2023/06/26 07:50:01;;;;;;;61.63;58.63;;;24.20;52.50;;;;;;5089454;28;20668;-77
2023/06/26 07:52:27;;;;;;;94.07;90.07;;;24.50;50.70;;;;;;5075011;28;20041;-77
2023/06/26 07:54:53;;;;;;;102.63;98.28;;;24.50;49.60;;;;;;5080701;28;20063;-77
2023/06/26 07:57:18;;;;;;;111.60;106.93;;;24.70;49.60;;;;;;5091744;28;20036;-77
2023/06/26 07:59:44;;;;;;;106.78;102.32;;;24.80;49.10;;;;;;5076648;28;20028;-74
2023/06/26 08:02:10;;;;;;;138.43;132.73;;;24.90;50.70;;;;;;5078728;28;20082;-78
2023/06/26 08:04:35;;;;;;;107.70;103.05;;;25.00;46.70;;;;;;5078618;28;20044;-78
2023/06/26 08:07:03;;;;;;;81.28;77.75;;;25.30;49.70;;;;;;5076699;28;20155;-78
2023/06/26 08:09:29;;;;;;;130.85;125.78;;;25.40;46.90;;;;;;5081319;28;20043;-78
2023/06/26 08:11:56;;;;;;;98.72;94.53;;;25.50;47.80;;;;;;5088556;28;20520;-78
2023/06/26 08:14:23;;;;;;;193.77;185.23;;;25.70;47.50;;;;;;5078407;28;20141;-78
2023/06/26 08:16:48;;;;;;;228.27;219.63;;;25.70;45.40;;;;;;5076407;28;20044;-78
2023/06/26 08:19:15;;;;;;;336.40;323.25;;;25.80;46.00;;;;;;5077015;28;20036;-78
2023/06/26 08:21:43;;;;;;;280.45;268.92;;;26.00;44.60;;;;;;5079920;28;20020;-78
2023/06/26 08:24:09;;;;;;;246.85;237.52;;;26.20;42.90;;;;;;5089750;28;20045;-78
2023/06/26 08:26:35;;;;;;;328.27;315.67;;;26.30;43.10;;;;;;5078997;28;20028;-78
2023/06/26 08:29:07;;;;;;;291.00;279.20;;;26.40;44.00;;;;;;5057512;28;20044;-78
2023/06/26 08:31:36;;;;;;;278.80;268.02;;;26.40;41.60;;;;;;5076378;28;20031;-78
2023/06/26 08:34:03;;;;;;;357.38;338.23;;;26.80;43.00;;;;;;5078170;28;20150;-78
2023/06/26 08:36:28;;;;;;;526.75;503.42;;;26.90;42.20;;;;;;5056340;28;20102;-78
2023/06/26 08:38:54;;;;;;;722.47;682.13;;;27.10;41.60;;;;;;5086513;28;20755;-78
2023/06/26 08:41:20;;;;;;;688.15;652.60;;;26.90;40.20;;;;;;5089669;28;20486;-78
2023/06/26 08:43:46;;;;;;;747.28;704.78;;;27.30;40.70;;;;;;5057824;28;20509;-78
2023/06/26 08:46:12;;;;;;;698.47;652.22;;;27.50;40.00;;;;;;5079582;28;20028;-78
2023/06/26 08:48:39;;;;;;;873.85;812.90;;;27.50;39.10;;;;;;5057199;28;20352;-78
2023/06/26 08:51:13;;;;;;;1588.15;832.17;;;27.30;36.50;;;;;;5074865;28;20050;-78
2023/06/26 08:54:00;;;;;;;438.27;409.13;;;27.70;36.40;;;;;;5079044;28;20028;-78
2023/06/26 08:56:40;;;;;;;1614.22;856.42;;;27.80;35.70;;;;;;5057404;28;20028;-78
2023/06/26 08:59:07;;;;;;;1999.90;999.90;;;28.10;36.70;;;;;;5073831;28;20523;-79
2023/06/26 09:01:32;;;;;;;1999.90;999.90;;;28.00;34.70;;;;;;5073775;28;20028;-77
2023/06/26 09:03:58;;;;;;;1999.90;999.90;;;28.10;34.30;;;;;;5073656;28;20082;-75
2023/06/26 09:06:24;;;;;;;1999.90;999.90;;;28.30;33.50;;;;;;5080743;28;20029;-76
2023/06/26 09:08:50;;;;;;;1133.55;623.92;;;28.30;36.00;;;;;;5072267;28;20119;-76
2023/06/26 09:11:16;;;;;;;1999.90;999.90;;;28.40;36.00;;;;;;5076887;28;20115;-76
2023/06/26 09:13:43;;;;;;;1999.90;999.90;;;28.20;33.60;;;;;;5074755;28;20094;-76
2023/06/26 09:16:09;;;;;;;1999.90;999.90;;;28.50;34.50;;;;;;5073852;28;20094;-76
2023/06/26 09:18:35;;;;;;;1999.90;999.90;;;28.70;33.40;;;;;;5075672;28;20036;-76
2023/06/26 09:21:07;;;;;;;1999.90;999.90;;;28.90;35.50;;;;;;5077697;28;20040;-77
2023/06/26 09:23:34;;;;;;;1999.90;999.90;;;28.90;31.40;;;;;;5073655;28;20049;-77
2023/06/26 09:26:05;;;;;;;1999.90;999.90;;;28.90;35.10;;;;;;5075269;28;20021;-76
2023/06/26 09:28:35;;;;;;;1999.90;999.90;;;29.00;33.50;;;;;;5073405;28;20051;-76
2023/06/26 09:31:05;;;;;;;1999.90;999.90;;;29.00;31.50;;;;;;5078381;28;20372;-77
2023/06/26 09:33:37;;;;;;;;;;;29.30;35.10;;;;;;5073426;28;20094;-76
2023/06/26 09:36:07;;;;;;;1999.90;999.90;;;29.40;30.30;;;;;;5072721;28;20026;-77
2023/06/26 09:38:35;;;;;;;1999.90;999.90;;;29.20;30.70;;;;;;5073321;28;20048;-76
2023/06/26 09:41:02;;;;;;;1999.90;999.90;;;29.60;30.80;;;;;;5088536;28;20052;-77
2023/06/26 09:43:28;;;;;;;1999.90;999.90;;;29.60;30.50;;;;;;5077430;28;20029;-77
2023/06/26 09:45:54;;;;;;;1999.90;999.90;;;29.60;30.10;;;;;;5077032;28;20029;-77
2023/06/26 09:48:21;;;;;;;1999.90;999.90;;;29.70;33.00;;;;;;5072585;28;20533;-81
2023/06/26 09:50:48;;;;;;;1999.90;999.90;;;29.50;30.30;;;;;;5077022;28;20059;-75
2023/06/26 09:53:13;;;;;;;1999.90;999.90;;;29.70;32.30;;;;;;5058698;28;20036;-76
2023/06/26 09:55:43;;;;;;;1999.90;999.90;;;29.80;29.80;;;;;;5073210;28;20032;-76
2023/06/26 09:58:14;;;;;;;1999.90;999.90;;;29.70;30.20;;;;;;5057143;28;20035;-76
2023/06/26 10:00:41;;;;;;;1999.90;999.90;;;29.40;31.40;;;;;;5071293;28;20495;-76
2023/06/26 10:03:08;;;;;;;1999.90;999.90;;;29.70;32.00;;;;;;5073517;28;20044;-76
2023/06/26 10:05:33;;;;;;;1999.90;999.90;;;29.00;32.90;;;;;;5076091;28;20027;-76
2023/06/26 10:07:59;;;;;;;1999.90;999.90;;;28.80;31.50;;;;;;5053217;28;20402;-76
2023/06/26 10:10:26;;;;;;;1999.90;999.90;;;29.60;32.30;;;;;;5073922;28;20449;-76
2023/06/26 10:12:59;;;;;;;1999.90;999.90;;;29.40;30.30;;;;;;5074940;28;20075;-76
2023/06/26 10:15:27;;;;;;;1999.90;999.90;;;29.10;33.00;;;;;;5073867;28;20518;-76
2023/06/26 10:17:57;;;;;;;1999.90;999.90;;;29.40;31.10;;;;;;5074404;28;20029;-76
2023/06/26 10:20:24;;;;;;;1999.90;999.90;;;29.40;29.40;;;;;;5073035;28;20031;-76
2023/06/26 10:22:50;;;;;;;1999.90;999.90;;;30.00;29.90;;;;;;5073599;28;20071;-76
2023/06/26 10:25:21;;;;;;;1999.90;999.90;;;29.80;29.90;;;;;;5055920;28;20060;-76
2023/06/26 10:27:53;;;;;;;1999.90;999.90;;;29.20;29.00;;;;;;5071523;28;20041;-73
2023/06/26 10:30:25;;;;;;;1999.90;999.90;;;29.20;30.40;;;;;;5075645;28;20041;-73
2023/06/26 10:32:51;;;;;;;1999.90;999.90;;;29.30;29.80;;;;;;5072600;28;20033;-73
2023/06/26 10:35:17;;;;;;;1999.90;999.90;;;29.00;29.60;;;;;;5074696;28;20044;-73
2023/06/26 10:37:48;;;;;;;1999.90;999.90;;;29.00;29.70;;;;;;5088233;28;20040;-73
2023/06/26 10:40:28;;;;;;;1999.90;999.90;;;29.80;29.00;;;;;;5072134;28;20181;-73
2023/06/26 10:43:08;;;;;;;;;;;30.20;27.60;;;;;;5071632;28;20024;-73
2023/06/26 10:45:35;;;;;;;1999.90;999.90;;;31.20;29.70;;;;;;5074014;28;19909;-73
2023/06/26 10:48:01;;;;;;;1999.90;999.90;;;30.80;26.70;;;;;;5075309;28;20036;-74
2023/06/26 10:50:30;;;;;;;1999.90;999.90;;;30.40;27.70;;;;;;5072359;28;20074;-73
2023/06/26 10:53:19;;;;;;;1999.90;999.90;;;30.00;28.70;;;;;;5070262;28;20036;-73
2023/06/26 10:56:05;;;;;;;1999.90;999.90;;;29.80;28.60;;;;;;5075796;28;20364;-73
2023/06/26 10:58:44;;;;;;;1999.90;999.90;;;30.10;28.10;;;;;;5072312;28;20040;-73
2023/06/26 11:01:22;;;;;;;1999.90;999.90;;;30.00;28.30;;;;;;5078419;28;20024;-73
2023/06/26 11:03:50;;;;;;;1999.90;999.90;;;30.80;28.00;;;;;;5072433;28;20032;-73
2023/06/26 11:06:21;;;;;;;1999.90;999.90;;;32.20;28.40;;;;;;5071798;28;20402;-75
2023/06/26 11:08:59;;;;;;;1999.90;999.90;;;32.10;25.90;;;;;;5076687;28;20057;-77
2023/06/26 11:12:04;;;;;;;1999.90;999.90;;;30.90;27.10;;;;;;5071763;28;20111;-76
2023/06/26 11:14:31;;;;;;;1999.90;999.90;;;30.10;28.00;;;;;;5071197;28;20045;-77
2023/06/26 11:16:57;;;;;;;1999.90;999.90;;;30.00;28.60;;;;;;5072201;28;20055;-76
2023/06/26 11:19:27;;;;;;;1999.90;999.90;;;29.20;28.80;;;;;;5070198;28;20078;-76
2023/06/26 11:21:58;;;;;;;1999.90;999.90;;;30.30;28.60;;;;;;5075150;28;20024;-77
2023/06/26 11:24:25;;;;;;;1999.90;999.90;;;31.70;27.70;;;;;;5072479;28;20633;-76
2023/06/26 11:26:52;;;;;;;1999.90;999.90;;;32.80;27.80;;;;;;5088669;28;20032;-76
2023/06/26 11:29:17;;;;;;;1999.90;999.90;;;33.80;26.30;;;;;;5071427;28;20020;-76
2023/06/26 11:31:43;;;;;;;1999.90;999.90;;;34.40;24.50;;;;;;5072139;28;20372;-76
2023/06/26 11:34:12;;;;;;;1999.90;999.90;;;34.60;25.60;;;;;;5076907;28;20036;-75
2023/06/26 11:36:38;;;;;;;1999.90;999.90;;;33.70;24.40;;;;;;5073444;28;20029;-76
2023/06/26 11:39:06;;;;;;;1999.90;999.90;;;33.20;24.50;;;;;;5070782;28;20067;-76
2023/06/26 11:41:33;;;;;;;1999.90;999.90;;;33.70;26.20;;;;;;5056616;28;20457;-75
2023/06/26 11:44:04;;;;;;;1999.90;999.90;;;32.80;24.90;;;;;;5072537;28;20056;-75
2023/06/26 11:46:30;;;;;;;1999.90;999.90;;;32.10;26.20;;;;;;5069996;28;20044;-75
2023/06/26 11:48:56;;;;;;;1999.90;999.90;;;32.00;27.50;;;;;;5074077;28;20131;-75
2023/06/26 11:51:22;;;;;;;1999.90;999.90;;;32.60;25.50;;;;;;5053491;28;20112;-75
2023/06/26 11:53:48;;;;;;;1999.90;999.90;;;34.30;26.10;;;;;;5070147;28;20390;-75
2023/06/26 11:56:16;;;;;;;1999.90;999.90;;;35.60;22.80;;;;;;5073370;28;20032;-75
2023/06/26 11:59:02;;;;;;;1999.90;999.90;;;36.90;22.70;;;;;;5072391;28;20551;-75
2023/06/26 12:01:42;;;;;;;1999.90;999.90;;;35.10;22.60;;;;;;5068920;28;20025;-75
2023/06/26 12:04:09;;;;;;;1999.90;999.90;;;34.60;23.70;;;;;;5072121;28;20025;-75
2023/06/26 12:06:40;;;;;;;1999.90;999.90;;;34.30;24.30;;;;;;5069876;28;20029;-76
2023/06/26 12:09:12;;;;;;;1999.90;999.90;;;35.30;23.90;;;;;;5051337;28;20509;-75
2023/06/26 12:11:44;;;;;;;1999.90;999.90;;;33.80;23.80;;;;;;5074368;28;20101;-75
2023/06/26 12:14:11;;;;;;;1999.90;999.90;;;32.40;26.50;;;;;;5075959;28;20037;-75
2023/06/26 12:16:39;;;;;;;1999.90;999.90;;;31.90;26.10;;;;;;5068104;28;20021;-75
2023/06/26 12:19:06;;;;;;;1999.90;999.90;;;31.40;28.20;;;;;;5070978;28;20068;-76